Due to severe server failure at the provider, not all demo sites are operational. Will take some days to rebuilt everything.

Demonstration site - Click on the  for more information

This is an optional block. Switch it on/off in your settings-file: $SITE['bannerTop'] = false; or $SITE['bannerBottom'] = false;

You can display ads, any other important text or photo’s using text / html or PHP code.

You can place one or more at the top and or bottom and it can all be different for content / size .



Visit our other weather sites:

Template documentation
and downloads

And another site



Nearby METAR Reports

   
EBAW - Antwerp
Updated: 28-02-2021 04:20
Mist, Clear  
Mist, Clear  
   Wind: NE 5.6 km/h
Wind: NE 5.6 km/h
Temperature: 2°C
Wind Chill: 1°C
Dew Point: 1°C
Humidity: 93%
Barometer: 1038 hPa
Clouds: Clear
Visibility: 4 km
Cloud details: Clear ft
EBAW 280320Z AUTO 04003KT 010V070 4200 BR NCD 02/01 Q1038
EBLG - Liège
Updated: 28-02-2021 04:20
Few Clouds  
Few Clouds  
   Wind: ENE 11.1 km/h
Wind: ENE 11.1 km/h
Temperature: 3°C
Wind Chill: 0°C
Dew Point: 1°C
Humidity: 87%
Barometer: 1037 hPa
Clouds: Few Clouds
Visibility: More than 10 km
Cloud details: Few Clouds 2000 ft
EBLG 280320Z 06006KT 9999 FEW020 03/01 Q1037 NOSIG
EBCV - Mons/Bergen
Updated: 28-02-2021 04:25
Clear  
Clear  
   Wind: ENE 9.3 km/h
Wind: ENE 9.3 km/h
Temperature: 2°C
Wind Chill: -1°C
Dew Point: 2°C
Humidity: 100%
Barometer: 1036 hPa
Clouds: Clear
Visibility: 5 km
Cloud details: Clear ft
EBCV 280325Z AUTO 06005KT 5000 NCD 02/02 Q1036 WHT
EHBK - Maastricht
Updated: 28-02-2021 04:25
Few Clouds  
Few Clouds  
   Wind: NE 11.1 km/h
Wind: NE 11.1 km/h
Temperature: 3°C
Wind Chill: 0°C
Dew Point: 1°C
Humidity: 87%
Barometer: 1037 hPa
Clouds: Few Clouds
Visibility: More than 10 km
Cloud details: Few Clouds 2600 ft
EHBK 280325Z AUTO 05006KT 9999 FEW026 03/01 Q1037
ELLX - Luxemburg
Updated: 28-02-2021 04:20
Mostly Cloudy  
Mostly Cloudy  
   Wind: NE 27.8 km/h
Wind: NE 27.8 km/h
Temperature: 2°C
Wind Chill: -4°C
Dew Point: -1°C
Humidity: 81%
Barometer: 1034 hPa
Clouds: Mostly Cloudy
Visibility: More than 10 km
Cloud details: Mostly Cloudy 1500 ft
ELLX 280320Z 05015KT 9999 BKN015 02/M01 Q1034 NOSIG
EBOS - Oostende
Updated: 28-02-2021 04:20
Mist, Partly Cloudy  
Mist, Partly Cloudy  
   Wind: East 13 km/h
Wind: East 13 km/h
Temperature: 2°C
Wind Chill: -2°C
Dew Point: 1°C
Humidity: 93%
Barometer: 1038 hPa
Clouds: Partly Cloudy
Visibility: 4 km
Cloud details: Partly Cloudy ft
EBOS 280320Z 08007KT 3500 BR NSC 02/01 Q1038 TEMPO 0200 FG BKN001

Script developed by  Saratoga-weather.org Adapted for the template by  Weerstation Leuven

This is an optional block. Switch it on/off in your settings-file: $SITE['bannerTop'] = false; or $SITE['bannerBottom'] = false;

You can display ads, any other important text or photo’s using text / html or PHP code.

You can place one or more at the top and or bottom and it can all be different for content / size .